createdAt,value
2018-01-15T00:00:02.128Z,38.60
2018-01-15T00:02:30.638Z,41.65
2018-01-15T00:05:00.626Z,41.17
2018-01-15T00:07:29.348Z,40.83
2018-01-15T00:09:57.898Z,42.97
2018-01-15T00:12:27.004Z,41.42
2018-01-15T00:14:55.763Z,41.92
2018-01-15T00:17:24.048Z,43.85
2018-01-15T00:19:53.668Z,36.35
2018-01-15T00:22:22.095Z,41.22
2018-01-15T00:24:50.742Z,40.05
2018-01-15T00:27:19.598Z,41.28
2018-01-15T00:29:48.380Z,44.38
2018-01-15T00:32:17.220Z,40.22
2018-01-15T00:34:46.664Z,49.20
2018-01-15T00:37:15.977Z,45.15
2018-01-15T00:39:45.974Z,45.78
2018-01-15T00:42:14.697Z,43.13
2018-01-15T00:44:43.332Z,39.33
2018-01-15T00:47:12.598Z,46.25
2018-01-15T00:49:43.090Z,47.78
2018-01-15T00:52:12.977Z,41.90
2018-01-15T00:54:42.477Z,47.50
2018-01-15T00:57:11.256Z,47.17
2018-01-15T00:59:41.326Z,44.60
2018-01-15T01:02:09.908Z,39.30
2018-01-15T01:04:38.295Z,46.42
2018-01-15T01:07:08.078Z,47.60
2018-01-15T01:09:36.773Z,42.17
2018-01-15T01:12:05.776Z,47.00
2018-01-15T01:14:34.429Z,51.10
2018-01-15T01:17:03.014Z,47.60
2018-01-15T01:19:31.795Z,46.85
2018-01-15T01:22:01.836Z,47.70
2018-01-15T01:24:30.692Z,46.97
2018-01-15T01:27:01.035Z,43.38
2018-01-15T01:29:30.073Z,47.62
2018-01-15T01:31:59.191Z,42.97
2018-01-15T01:34:28.112Z,39.50
2018-01-15T01:36:56.848Z,41.72
2018-01-15T01:39:25.964Z,45.42
2018-01-15T01:41:56.205Z,37.22
2018-01-15T01:44:24.905Z,47.55
2018-01-15T01:46:53.747Z,43.65
2018-01-15T01:49:22.462Z,45.22
2018-01-15T01:51:50.931Z,44.90
2018-01-15T01:54:20.148Z,47.15
2018-01-15T01:56:48.889Z,54.88
2018-01-15T01:59:17.968Z,51.92
2018-01-15T02:01:47.818Z,59.67
2018-01-15T02:04:16.633Z,53.15
2018-01-15T02:06:45.407Z,54.55
2018-01-15T02:09:13.795Z,54.08
2018-01-15T02:11:43.131Z,40.60
2018-01-15T02:14:12.768Z,45.95
2018-01-15T02:16:41.145Z,54.95
2018-01-15T02:19:09.789Z,48.17
2018-01-15T02:21:39.204Z,49.85
2018-01-15T02:24:09.168Z,51.08
2018-01-15T02:26:37.757Z,51.70
2018-01-15T02:29:05.889Z,52.10
2018-01-15T02:31:34.671Z,56.63
2018-01-15T02:34:03.290Z,49.78
2018-01-15T02:36:31.577Z,44.30
2018-01-15T02:39:01.774Z,48.45
2018-01-15T02:41:31.041Z,51.13
2018-01-15T02:44:00.410Z,49.90
2018-01-15T02:46:29.326Z,51.15
2018-01-15T02:48:57.917Z,51.10
2018-01-15T02:51:27.648Z,52.35
2018-01-15T02:53:57.188Z,48.42
2018-01-15T02:56:26.135Z,44.78
2018-01-15T02:58:56.732Z,52.83
2018-01-15T03:01:25.334Z,46.17
2018-01-15T03:03:54.106Z,49.17
2018-01-15T03:06:22.996Z,50.55
2018-01-15T03:08:52.372Z,45.50
2018-01-15T03:11:22.246Z,51.88
2018-01-15T03:13:51.203Z,42.90
2018-01-15T03:16:21.191Z,48.63
2018-01-15T03:18:49.927Z,52.67
2018-01-15T03:21:19.405Z,56.13
2018-01-15T03:23:49.441Z,53.22
2018-01-15T03:26:18.085Z,50.45
2018-01-15T03:28:46.474Z,56.37
2018-01-15T03:31:15.775Z,61.37
2018-01-15T03:33:45.231Z,51.65
2018-01-15T03:36:13.991Z,54.78
2018-01-15T03:38:42.954Z,54.58
2018-01-15T03:41:12.374Z,54.03
2018-01-15T03:43:40.748Z,45.75
2018-01-15T03:46:09.206Z,43.85
2018-01-15T03:48:38.132Z,53.10
2018-01-15T03:51:06.460Z,55.50
2018-01-15T03:53:35.670Z,56.65
2018-01-15T03:56:05.397Z,49.17
2018-01-15T03:58:34.625Z,46.92
2018-01-15T04:01:03.599Z,57.30
2018-01-15T04:03:32.387Z,49.10
2018-01-15T04:06:01.910Z,53.08
2018-01-15T04:08:30.925Z,50.78
2018-01-15T04:11:00.573Z,54.05
2018-01-15T04:13:29.268Z,60.08
2018-01-15T04:15:57.643Z,56.97
2018-01-15T04:18:26.634Z,52.15
2018-01-15T04:20:56.232Z,58.10
2018-01-15T04:23:25.324Z,58.28
2018-01-15T04:25:54.465Z,56.58
2018-01-15T04:28:23.355Z,54.38
2018-01-15T04:30:52.141Z,56.55
2018-01-15T04:33:20.689Z,51.22
2018-01-15T04:35:48.953Z,57.53
2018-01-15T04:38:17.816Z,48.75
2018-01-15T04:40:46.309Z,57.95
2018-01-15T04:43:15.192Z,61.10
2018-01-15T04:45:44.240Z,63.25
2018-01-15T04:48:13.334Z,60.78
2018-01-15T04:50:42.514Z,58.17
2018-01-15T04:53:11.101Z,57.13
2018-01-15T04:55:39.835Z,55.10
2018-01-15T04:58:08.522Z,58.50
2018-01-15T05:00:37.251Z,53.63
2018-01-15T05:03:05.896Z,59.60
2018-01-15T05:05:34.692Z,58.53
2018-01-15T05:08:03.740Z,60.38
2018-01-15T05:25:54.693Z,59.95
2018-01-15T05:28:23.254Z,77.72
2018-01-15T05:30:51.842Z,61.33
2018-01-15T05:33:21.852Z,58.30
2018-01-15T05:35:50.576Z,57.55
2018-01-15T05:38:19.085Z,55.28
2018-01-15T05:40:47.292Z,62.65
2018-01-15T05:43:16.013Z,57.70
2018-01-15T05:45:44.573Z,56.90
2018-01-15T05:48:14.494Z,44.85
2018-01-15T05:50:43.539Z,59.42
2018-01-15T05:53:13.030Z,57.13
2018-01-15T05:55:41.334Z,59.25
2018-01-15T05:58:10.775Z,57.60
2018-01-15T06:00:39.433Z,53.83
2018-01-15T06:03:09.510Z,54.20
2018-01-15T06:05:37.813Z,65.93
2018-01-15T06:08:06.652Z,52.05
2018-01-15T06:10:34.769Z,51.22
2018-01-15T06:13:04.289Z,61.05
2018-01-15T06:15:32.823Z,63.53
2018-01-15T06:18:01.765Z,66.20
2018-01-15T06:20:31.414Z,59.22
2018-01-15T06:22:59.724Z,61.83
2018-01-15T06:25:28.213Z,64.40
2018-01-15T06:27:57.829Z,62.38
2018-01-15T06:30:26.465Z,59.58
2018-01-15T06:32:55.899Z,55.72
2018-01-15T06:35:25.711Z,56.55
2018-01-15T06:37:56.346Z,62.83
2018-01-15T06:40:25.767Z,62.72
2018-01-15T06:42:54.942Z,54.60
2018-01-15T06:45:23.410Z,56.45
2018-01-15T06:47:51.890Z,60.50
2018-01-15T06:50:20.682Z,57.80
2018-01-15T06:52:49.215Z,66.28
2018-01-15T06:55:17.853Z,53.80
2018-01-15T06:57:47.629Z,57.62
2018-01-15T07:00:15.899Z,58.53
2018-01-15T07:02:44.581Z,57.33
2018-01-15T07:05:13.441Z,58.20
2018-01-15T07:07:41.642Z,58.00
2018-01-15T07:10:10.503Z,67.75
2018-01-15T07:12:39.019Z,59.45
2018-01-15T07:15:08.323Z,61.90
2018-01-15T07:17:37.454Z,62.60
2018-01-15T07:20:06.294Z,62.83
2018-01-15T07:22:35.295Z,62.22
2018-01-15T07:25:04.611Z,56.08
2018-01-15T07:27:33.667Z,58.85
2018-01-15T07:30:03.088Z,59.10
2018-01-15T07:32:31.564Z,53.40
2018-01-15T07:35:01.109Z,57.08
2018-01-15T07:37:30.211Z,55.12
2018-01-15T07:39:59.046Z,63.05
2018-01-15T07:42:27.378Z,65.10
2018-01-15T07:44:56.138Z,57.65
2018-01-15T07:47:26.620Z,59.03
2018-01-15T07:49:55.092Z,56.42
2018-01-15T07:52:24.680Z,53.58
2018-01-15T07:54:53.621Z,54.33
2018-01-15T07:57:22.789Z,52.35
2018-01-15T07:59:51.470Z,55.03
2018-01-15T08:02:19.748Z,53.42
2018-01-15T08:04:48.741Z,55.88
2018-01-15T08:07:18.005Z,55.22
2018-01-15T08:09:47.654Z,49.72
2018-01-15T08:12:16.463Z,54.97
2018-01-15T08:14:45.068Z,57.47
2018-01-15T08:17:14.031Z,53.35
2018-01-15T08:19:43.948Z,54.42
2018-01-15T08:22:12.953Z,50.97
2018-01-15T08:24:41.512Z,49.65
2018-01-15T08:27:10.535Z,60.42
2018-01-15T08:29:39.652Z,53.97
2018-01-15T08:32:09.166Z,62.35
2018-01-15T08:34:39.186Z,55.63
2018-01-15T08:37:08.102Z,55.10
2018-01-15T08:39:37.374Z,51.58
2018-01-15T08:42:06.367Z,57.10
2018-01-15T08:44:36.046Z,54.63
2018-01-15T08:47:05.617Z,54.00
2018-01-15T08:49:34.694Z,50.65
2018-01-15T08:52:03.068Z,55.78
2018-01-15T08:54:32.272Z,51.20
2018-01-15T08:57:02.214Z,58.13
2018-01-15T08:59:31.403Z,55.70
2018-01-15T09:02:00.255Z,46.15
2018-01-15T09:04:28.446Z,62.15
2018-01-15T09:06:58.900Z,47.90
2018-01-15T09:09:27.557Z,47.62
2018-01-15T09:11:56.697Z,54.88
2018-01-15T09:14:25.765Z,52.97
2018-01-15T09:16:54.266Z,53.10
2018-01-15T09:19:22.784Z,54.38
2018-01-15T09:21:51.299Z,49.65
2018-01-15T09:24:20.825Z,53.10
2018-01-15T09:26:49.438Z,48.97
2018-01-15T09:29:18.402Z,51.85
2018-01-15T09:31:47.156Z,45.33
2018-01-15T09:34:16.320Z,51.00
2018-01-15T09:36:45.087Z,50.10
2018-01-15T09:39:14.183Z,45.80
2018-01-15T09:41:42.723Z,51.80
2018-01-15T09:44:11.977Z,57.50
2018-01-15T09:46:40.520Z,52.10
2018-01-15T09:49:09.385Z,51.15
2018-01-15T09:51:38.225Z,54.38
2018-01-15T09:54:07.051Z,53.72
2018-01-15T09:56:36.083Z,50.72
2018-01-15T09:59:05.804Z,51.78
2018-01-15T10:01:34.031Z,47.80
2018-01-15T10:04:04.056Z,48.45
2018-01-15T10:06:33.203Z,48.20
2018-01-15T10:09:02.664Z,46.72
2018-01-15T10:11:31.832Z,49.10
2018-01-15T10:14:01.259Z,47.22
2018-01-15T10:16:31.108Z,44.63
2018-01-15T10:18:59.784Z,42.35
2018-01-15T10:21:29.455Z,44.70
2018-01-15T10:23:58.698Z,45.13
2018-01-15T10:26:28.254Z,44.37
2018-01-15T10:28:57.091Z,46.13
2018-01-15T10:31:25.377Z,49.03
2018-01-15T10:33:53.679Z,42.10
2018-01-15T10:36:22.484Z,45.00
2018-01-15T10:38:51.757Z,47.17
2018-01-15T10:41:20.748Z,48.00
2018-01-15T10:43:49.113Z,39.10
2018-01-15T10:46:17.566Z,46.10
2018-01-15T10:48:46.738Z,44.37
2018-01-15T10:51:15.742Z,39.77
2018-01-15T10:53:44.926Z,38.63
2018-01-15T10:56:14.395Z,36.87
2018-01-15T10:58:43.293Z,41.80
2018-01-15T11:01:12.672Z,40.57
2018-01-15T11:03:43.258Z,41.03
2018-01-15T11:06:11.761Z,43.03
2018-01-15T11:08:41.194Z,46.40
2018-01-15T11:11:09.852Z,44.80
2018-01-15T11:13:39.398Z,39.97
2018-01-15T11:16:09.192Z,42.77
2018-01-15T11:18:37.727Z,44.20
2018-01-15T11:21:07.441Z,43.60
2018-01-15T11:23:36.254Z,44.07
2018-01-15T11:26:05.985Z,40.80
2018-01-15T11:28:34.715Z,46.97
2018-01-15T11:31:03.937Z,41.70
2018-01-15T11:33:34.034Z,44.80
2018-01-15T11:36:02.444Z,36.60
2018-01-15T11:38:31.590Z,43.60
2018-01-15T11:41:00.199Z,41.17
2018-01-15T11:43:29.137Z,41.30
2018-01-15T11:45:58.034Z,44.27
2018-01-15T11:48:26.658Z,49.63
2018-01-15T11:50:55.942Z,46.77
2018-01-15T11:53:24.250Z,45.47
2018-01-15T11:55:53.149Z,41.37
2018-01-15T11:58:21.587Z,42.93
2018-01-15T12:00:51.452Z,41.20
2018-01-15T12:03:20.758Z,43.63
2018-01-15T12:05:49.368Z,42.40
2018-01-15T12:08:18.467Z,39.03
2018-01-15T12:10:47.648Z,41.57
2018-01-15T12:13:16.746Z,41.43
2018-01-15T12:15:46.216Z,57.20
2018-01-15T12:18:14.550Z,57.43
2018-01-15T12:20:43.360Z,41.27
2018-01-15T12:23:12.421Z,42.63
2018-01-15T12:25:41.624Z,44.13
2018-01-15T12:28:11.045Z,46.87
2018-01-15T12:30:39.885Z,42.43
2018-01-15T12:33:08.818Z,44.60
2018-01-15T12:35:38.074Z,47.47
2018-01-15T12:38:07.895Z,47.73
2018-01-15T12:40:37.532Z,50.70
2018-01-15T12:43:07.829Z,40.53
2018-01-15T12:45:37.625Z,40.90
2018-01-15T12:48:06.970Z,45.80
2018-01-15T12:50:35.450Z,45.95
2018-01-15T12:53:04.596Z,42.27
2018-01-15T12:55:33.759Z,41.97
2018-01-15T12:58:02.882Z,38.93
2018-01-15T13:00:31.915Z,44.60
2018-01-15T13:03:00.883Z,52.20
2018-01-15T13:05:29.252Z,45.40
2018-01-15T13:07:57.778Z,48.63
2018-01-15T13:10:27.575Z,44.75
2018-01-15T13:12:56.172Z,41.45
2018-01-15T13:15:24.650Z,47.92
2018-01-15T13:17:53.237Z,41.40
2018-01-15T13:20:21.954Z,40.10
2018-01-15T13:22:50.656Z,49.55
2018-01-15T13:25:20.243Z,48.33
2018-01-15T13:27:48.618Z,54.70
2018-01-15T13:30:17.568Z,41.33
2018-01-15T13:32:46.828Z,43.87
2018-01-15T13:35:15.982Z,47.85
2018-01-15T13:37:44.934Z,41.00
2018-01-15T13:40:13.607Z,45.75
2018-01-15T13:42:43.435Z,42.45
2018-01-15T13:45:11.878Z,46.73
2018-01-15T13:47:41.450Z,48.40
2018-01-15T13:50:09.835Z,50.77
2018-01-15T13:52:38.551Z,46.60
2018-01-15T13:55:07.619Z,47.33
2018-01-15T13:57:36.258Z,43.20
2018-01-15T14:00:05.056Z,48.10
2018-01-15T14:02:33.879Z,38.95
2018-01-15T14:05:02.634Z,41.72
2018-01-15T14:07:32.129Z,50.80
2018-01-15T14:10:00.821Z,45.00
2018-01-15T14:12:29.865Z,52.42
2018-01-15T14:14:58.316Z,55.08
2018-01-15T14:17:26.637Z,51.00
2018-01-15T14:19:56.315Z,93.47
2018-01-15T14:22:25.540Z,47.50
2018-01-15T14:24:53.904Z,51.83
2018-01-15T14:27:23.149Z,52.47
2018-01-15T14:29:51.859Z,45.43
2018-01-15T14:32:20.845Z,50.60
2018-01-15T14:34:50.122Z,47.47
2018-01-15T14:37:18.646Z,51.63
2018-01-15T14:39:47.908Z,49.63
2018-01-15T14:42:17.223Z,48.27
2018-01-15T14:44:45.806Z,48.70
2018-01-15T14:47:14.516Z,43.57
2018-01-15T14:49:43.844Z,49.45
2018-01-15T14:52:12.702Z,52.97
2018-01-15T14:54:42.522Z,46.90
2018-01-15T14:57:11.336Z,46.63
2018-01-15T14:59:39.732Z,46.42
2018-01-15T15:02:09.087Z,44.33
2018-01-15T15:04:37.601Z,44.67
2018-01-15T15:07:06.509Z,43.90
2018-01-15T15:09:36.083Z,45.72
2018-01-15T15:12:05.075Z,49.75
2018-01-15T15:14:34.247Z,46.78
2018-01-15T15:17:02.988Z,48.10
2018-01-15T15:19:32.055Z,48.60
2018-01-15T15:22:01.637Z,56.50
2018-01-15T15:24:31.230Z,55.75
2018-01-15T15:27:00.184Z,49.67
2018-01-15T15:29:29.831Z,50.90
2018-01-15T15:31:58.498Z,49.22
2018-01-15T15:34:28.025Z,50.10
2018-01-15T15:36:58.704Z,47.50
2018-01-15T15:39:27.546Z,51.33
2018-01-15T15:41:56.558Z,51.28
2018-01-15T15:44:25.242Z,54.88
2018-01-15T15:46:53.299Z,54.97
2018-01-15T15:49:22.073Z,58.30
2018-01-15T15:51:50.894Z,53.03
2018-01-15T15:54:19.705Z,60.00
2018-01-15T15:56:48.860Z,51.22
2018-01-15T15:59:17.417Z,54.10
2018-01-15T16:01:47.006Z,51.20
2018-01-15T16:04:15.623Z,56.92
2018-01-15T16:06:44.303Z,53.40
2018-01-15T16:09:13.491Z,51.25
2018-01-15T16:11:42.089Z,66.20
2018-01-15T16:14:11.067Z,57.97
2018-01-15T16:16:39.892Z,62.70
2018-01-15T16:19:09.279Z,69.07
2018-01-15T16:21:37.841Z,64.00
2018-01-15T16:24:07.291Z,59.60
2018-01-15T16:26:35.873Z,59.35
2018-01-15T16:29:04.598Z,54.97
2018-01-15T16:31:35.212Z,52.17
2018-01-15T16:34:04.726Z,64.75
2018-01-15T16:36:34.414Z,49.97
2018-01-15T16:39:03.607Z,55.05
2018-01-15T16:41:31.922Z,47.28
2018-01-15T16:44:01.172Z,57.28
2018-01-15T16:46:30.058Z,47.25
2018-01-15T16:48:59.467Z,49.92
2018-01-15T16:51:28.636Z,57.10
2018-01-15T16:53:57.340Z,62.47
2018-01-15T16:56:27.000Z,57.25
2018-01-15T16:58:55.653Z,52.08
2018-01-15T17:01:24.693Z,52.67
2018-01-15T17:03:53.176Z,52.00
2018-01-15T17:06:21.698Z,57.15
2018-01-15T17:08:51.933Z,56.53
2018-01-15T17:11:20.941Z,55.05
2018-01-15T17:13:49.915Z,56.33
2018-01-15T17:16:19.091Z,64.43
2018-01-15T17:18:48.853Z,56.47
2018-01-15T17:21:17.783Z,59.17
2018-01-15T17:23:46.456Z,71.05
2018-01-15T17:26:14.891Z,71.50
2018-01-15T17:28:44.142Z,68.70
2018-01-15T17:31:12.608Z,60.83
2018-01-15T17:33:41.511Z,56.50
2018-01-15T17:36:10.150Z,55.22
2018-01-15T17:38:38.627Z,60.20
2018-01-15T17:41:07.354Z,61.60
2018-01-15T17:43:35.939Z,59.03
2018-01-15T17:46:05.265Z,50.97
2018-01-15T17:48:34.250Z,56.92
2018-01-15T17:51:03.016Z,53.35
2018-01-15T17:53:31.853Z,54.38
2018-01-15T17:56:02.217Z,61.90
2018-01-15T17:58:30.476Z,50.03
2018-01-15T18:00:59.416Z,45.63
2018-01-15T18:03:29.364Z,44.05
2018-01-15T18:05:59.307Z,53.05
2018-01-15T18:08:29.150Z,55.50
2018-01-15T18:10:57.570Z,50.00
2018-01-15T18:13:26.317Z,55.85
2018-01-15T18:15:56.228Z,52.90
2018-01-15T18:18:25.501Z,52.40
2018-01-15T18:20:54.954Z,45.25
2018-01-15T18:23:24.328Z,48.08
2018-01-15T18:25:54.481Z,54.92
2018-01-15T18:28:23.031Z,54.42
2018-01-15T18:30:52.532Z,54.90
2018-01-15T18:33:22.131Z,45.45
2018-01-15T18:35:51.534Z,51.65
2018-01-15T18:38:20.487Z,53.92
2018-01-15T18:40:49.171Z,55.72
2018-01-15T18:43:17.918Z,48.45
2018-01-15T18:45:46.898Z,52.53
2018-01-15T18:48:15.930Z,47.35
2018-01-15T18:50:44.790Z,64.15
2018-01-15T18:53:13.765Z,53.28
2018-01-15T18:55:43.513Z,51.47
2018-01-15T18:58:11.964Z,51.60
2018-01-15T19:00:41.063Z,47.55
2018-01-15T19:03:10.608Z,50.67
2018-01-15T19:05:40.050Z,49.55
2018-01-15T19:08:09.147Z,51.75
2018-01-15T19:10:37.417Z,54.22
2018-01-15T19:13:07.657Z,51.60
2018-01-15T19:15:37.112Z,52.72
2018-01-15T19:18:06.240Z,51.85
2018-01-15T19:20:35.432Z,50.47
2018-01-15T19:23:04.882Z,53.60
2018-01-15T19:25:33.083Z,53.00
2018-01-15T19:28:01.812Z,53.05
2018-01-15T19:30:31.339Z,56.90
2018-01-15T19:32:59.427Z,57.03
2018-01-15T19:35:28.135Z,55.28
2018-01-15T19:37:56.674Z,51.95
2018-01-15T19:40:26.452Z,55.55
2018-01-15T19:42:55.753Z,48.78
2018-01-15T19:45:25.337Z,44.72
2018-01-15T19:47:54.731Z,40.85
2018-01-15T19:50:23.613Z,45.55
2018-01-15T19:52:52.167Z,56.47
2018-01-15T19:55:20.397Z,45.12
2018-01-15T19:57:50.713Z,43.97
2018-01-15T20:00:19.322Z,39.63
2018-01-15T20:02:48.228Z,52.55
2018-01-15T20:05:16.772Z,41.50
2018-01-15T20:07:45.617Z,39.22
2018-01-15T20:10:14.410Z,35.88
2018-01-15T20:12:43.456Z,41.70
2018-01-15T20:15:13.025Z,36.00
2018-01-15T20:17:41.784Z,35.38
2018-01-15T20:20:11.478Z,38.70
2018-01-15T20:22:41.211Z,47.00
2018-01-15T20:25:10.822Z,46.40
2018-01-15T20:27:39.209Z,45.22
2018-01-15T20:30:07.858Z,51.75
2018-01-15T20:32:37.775Z,44.42
2018-01-15T20:35:06.407Z,42.05
2018-01-15T20:37:35.558Z,48.30
2018-01-15T20:40:05.099Z,45.53
2018-01-15T20:42:34.410Z,45.22
2018-01-15T20:45:03.756Z,44.05
2018-01-15T20:47:32.706Z,41.60
2018-01-15T20:50:00.951Z,38.60
2018-01-15T20:52:30.289Z,49.00
2018-01-15T20:54:58.545Z,41.05
2018-01-15T20:57:26.806Z,44.05
2018-01-15T20:59:55.101Z,42.20
2018-01-15T21:02:23.289Z,38.08
2018-01-15T21:04:51.665Z,47.88
2018-01-15T21:07:19.882Z,35.72
2018-01-15T21:09:49.055Z,32.97
2018-01-15T21:12:17.558Z,36.65
2018-01-15T21:14:46.619Z,31.08
2018-01-15T21:17:14.805Z,32.58
2018-01-15T21:19:43.176Z,27.40
2018-01-15T21:22:11.409Z,34.33
2018-01-15T21:24:39.674Z,28.12
2018-01-15T21:27:07.859Z,31.83
2018-01-15T21:29:36.255Z,28.65
2018-01-15T21:32:04.658Z,35.83
2018-01-15T21:34:33.167Z,24.10
2018-01-15T21:37:01.332Z,21.62
2018-01-15T21:39:29.711Z,15.50
2018-01-15T21:41:58.974Z,12.45
2018-01-15T21:44:27.682Z,11.25
2018-01-15T21:46:57.391Z,10.65
2018-01-15T21:49:25.837Z,14.05
2018-01-15T21:51:54.032Z,13.60
2018-01-15T21:54:23.341Z,12.95
2018-01-15T21:56:53.004Z,12.98
2018-01-15T21:59:21.320Z,11.75
2018-01-15T22:01:50.261Z,14.18
2018-01-15T22:04:19.806Z,12.70
2018-01-15T22:06:48.220Z,17.25
2018-01-15T22:09:16.685Z,13.15
2018-01-15T22:11:45.832Z,14.32
2018-01-15T22:14:16.094Z,11.90
2018-01-15T22:16:45.257Z,22.73
2018-01-15T22:19:13.811Z,15.88
2018-01-15T22:21:42.307Z,16.23
2018-01-15T22:24:11.161Z,18.60
2018-01-15T22:26:39.909Z,12.48
2018-01-15T22:29:09.254Z,13.30
2018-01-15T22:31:38.501Z,16.73
2018-01-15T22:34:09.712Z,20.10
2018-01-15T22:36:38.656Z,18.67
2018-01-15T22:39:07.602Z,17.40
2018-01-15T22:41:36.385Z,19.25
2018-01-15T22:44:05.661Z,15.90
2018-01-15T22:46:36.311Z,16.65
2018-01-15T22:49:04.568Z,15.40
2018-01-15T22:51:33.216Z,14.43
2018-01-15T22:54:02.022Z,12.63
2018-01-15T22:56:30.570Z,14.05
2018-01-15T22:58:59.200Z,17.20
2018-01-15T23:01:27.545Z,13.88
2018-01-15T23:03:56.071Z,14.35
2018-01-15T23:06:24.785Z,11.85
2018-01-15T23:08:54.561Z,15.38
2018-01-15T23:11:23.275Z,14.73
2018-01-15T23:13:53.029Z,11.95
2018-01-15T23:16:22.607Z,10.88
2018-01-15T23:18:52.033Z,19.08
2018-01-15T23:21:20.967Z,14.75
2018-01-15T23:23:50.640Z,12.73
2018-01-15T23:26:19.109Z,17.08
2018-01-15T23:28:48.226Z,14.73
2018-01-15T23:31:17.144Z,15.55
2018-01-15T23:33:45.843Z,15.50
2018-01-15T23:36:14.563Z,14.18
2018-01-15T23:38:43.787Z,15.25
2018-01-15T23:41:13.052Z,11.90
2018-01-15T23:43:42.406Z,15.48
2018-01-15T23:46:11.066Z,14.38
2018-01-15T23:48:39.751Z,13.93
2018-01-15T23:51:08.665Z,12.52
2018-01-15T23:53:37.171Z,13.15
2018-01-15T23:56:05.428Z,17.58
2018-01-15T23:58:34.451Z,13.35
